sensor_id;sensor_type;location;lat;lon;timestamp;temperature;humidity
46730;DHT22;32476;50.002;11.854;2023-05-07T00:00:59;9.60;99.90
46730;DHT22;32476;50.002;11.854;2023-05-07T00:03:25;9.60;99.90
46730;DHT22;32476;50.002;11.854;2023-05-07T00:05:53;9.60;99.90
46730;DHT22;32476;50.002;11.854;2023-05-07T00:08:19;9.60;99.90
46730;DHT22;32476;50.002;11.854;2023-05-07T00:10:45;9.60;99.90
46730;DHT22;32476;50.002;11.854;2023-05-07T00:13:13;9.60;99.90
46730;DHT22;32476;50.002;11.854;2023-05-07T00:15:39;9.60;99.90
46730;DHT22;32476;50.002;11.854;2023-05-07T00:18:05;9.60;99.90
46730;DHT22;32476;50.002;11.854;2023-05-07T00:20:32;9.60;99.90
46730;DHT22;32476;50.002;11.854;2023-05-07T00:22:58;9.50;99.90
46730;DHT22;32476;50.002;11.854;2023-05-07T00:25:24;9.40;99.90
46730;DHT22;32476;50.002;11.854;2023-05-07T00:27:51;9.40;99.90
46730;DHT22;32476;50.002;11.854;2023-05-07T00:30:17;9.40;99.90
46730;DHT22;32476;50.002;11.854;2023-05-07T00:32:43;9.40;99.90
46730;DHT22;32476;50.002;11.854;2023-05-07T00:35:12;9.40;99.90
46730;DHT22;32476;50.002;11.854;2023-05-07T00:37:38;9.40;99.90
46730;DHT22;32476;50.002;11.854;2023-05-07T00:40:04;9.40;99.90
46730;DHT22;32476;50.002;11.854;2023-05-07T00:42:34;9.40;99.90
46730;DHT22;32476;50.002;11.854;2023-05-07T00:44:59;9.30;99.90
46730;DHT22;32476;50.002;11.854;2023-05-07T00:47:25;9.30;99.90
46730;DHT22;32476;50.002;11.854;2023-05-07T00:49:53;9.20;99.90
46730;DHT22;32476;50.002;11.854;2023-05-07T00:52:20;9.20;99.90
46730;DHT22;32476;50.002;11.854;2023-05-07T00:54:47;9.10;99.90
46730;DHT22;32476;50.002;11.854;2023-05-07T00:57:15;9.10;99.90
46730;DHT22;32476;50.002;11.854;2023-05-07T00:59:41;9.00;99.90
46730;DHT22;32476;50.002;11.854;2023-05-07T01:02:07;9.00;99.90
46730;DHT22;32476;50.002;11.854;2023-05-07T01:04:34;8.90;99.90
46730;DHT22;32476;50.002;11.854;2023-05-07T01:07:01;8.80;99.90
46730;DHT22;32476;50.002;11.854;2023-05-07T01:09:28;8.80;99.90
46730;DHT22;32476;50.002;11.854;2023-05-07T01:11:56;8.70;99.90
46730;DHT22;32476;50.002;11.854;2023-05-07T01:14:23;8.70;99.90
46730;DHT22;32476;50.002;11.854;2023-05-07T01:16:49;8.60;99.90
46730;DHT22;32476;50.002;11.854;2023-05-07T01:19:18;8.60;99.90
46730;DHT22;32476;50.002;11.854;2023-05-07T01:21:48;8.50;99.90
46730;DHT22;32476;50.002;11.854;2023-05-07T01:24:15;8.40;99.90
46730;DHT22;32476;50.002;11.854;2023-05-07T01:26:43;8.40;99.90
46730;DHT22;32476;50.002;11.854;2023-05-07T01:29:12;8.40;99.90
46730;DHT22;32476;50.002;11.854;2023-05-07T01:31:38;8.30;99.90
46730;DHT22;32476;50.002;11.854;2023-05-07T01:34:08;8.30;99.90
46730;DHT22;32476;50.002;11.854;2023-05-07T01:36:37;8.30;99.90
46730;DHT22;32476;50.002;11.854;2023-05-07T01:39:04;8.30;99.90
46730;DHT22;32476;50.002;11.854;2023-05-07T01:41:32;8.20;99.90
46730;DHT22;32476;50.002;11.854;2023-05-07T01:43:59;8.20;99.90
46730;DHT22;32476;50.002;11.854;2023-05-07T01:46:26;8.00;99.90
46730;DHT22;32476;50.002;11.854;2023-05-07T01:48:54;8.10;99.90
46730;DHT22;32476;50.002;11.854;2023-05-07T01:51:19;8.10;99.90
46730;DHT22;32476;50.002;11.854;2023-05-07T01:53:46;8.00;99.90
46730;DHT22;32476;50.002;11.854;2023-05-07T01:56:18;8.10;99.90
46730;DHT22;32476;50.002;11.854;2023-05-07T01:58:47;8.20;99.90
46730;DHT22;32476;50.002;11.854;2023-05-07T02:01:13;8.40;99.90
46730;DHT22;32476;50.002;11.854;2023-05-07T02:03:41;8.40;99.90
46730;DHT22;32476;50.002;11.854;2023-05-07T02:06:06;8.50;99.90
46730;DHT22;32476;50.002;11.854;2023-05-07T02:08:32;8.50;99.90
46730;DHT22;32476;50.002;11.854;2023-05-07T02:11:00;8.50;99.90
46730;DHT22;32476;50.002;11.854;2023-05-07T02:13:29;8.40;99.90
46730;DHT22;32476;50.002;11.854;2023-05-07T02:15:55;8.30;99.90
46730;DHT22;32476;50.002;11.854;2023-05-07T02:18:22;8.20;99.90
46730;DHT22;32476;50.002;11.854;2023-05-07T02:20:48;8.10;99.90
46730;DHT22;32476;50.002;11.854;2023-05-07T02:23:14;8.10;99.90
46730;DHT22;32476;50.002;11.854;2023-05-07T02:25:41;8.00;99.90
46730;DHT22;32476;50.002;11.854;2023-05-07T02:28:07;8.00;99.90
46730;DHT22;32476;50.002;11.854;2023-05-07T02:30:33;8.00;99.90
46730;DHT22;32476;50.002;11.854;2023-05-07T02:33:00;8.10;99.90
46730;DHT22;32476;50.002;11.854;2023-05-07T02:35:26;8.20;99.90
46730;DHT22;32476;50.002;11.854;2023-05-07T02:37:51;8.30;99.90
46730;DHT22;32476;50.002;11.854;2023-05-07T02:40:19;8.40;99.90
46730;DHT22;32476;50.002;11.854;2023-05-07T02:42:45;8.30;99.90
46730;DHT22;32476;50.002;11.854;2023-05-07T02:45:11;8.30;99.90
46730;DHT22;32476;50.002;11.854;2023-05-07T02:47:38;8.30;99.90
46730;DHT22;32476;50.002;11.854;2023-05-07T02:50:04;8.20;99.90
46730;DHT22;32476;50.002;11.854;2023-05-07T02:52:30;8.20;99.90
46730;DHT22;32476;50.002;11.854;2023-05-07T02:54:57;8.20;99.90
46730;DHT22;32476;50.002;11.854;2023-05-07T02:57:23;8.10;99.90
46730;DHT22;32476;50.002;11.854;2023-05-07T02:59:49;8.00;99.90
46730;DHT22;32476;50.002;11.854;2023-05-07T03:02:16;7.90;99.90
46730;DHT22;32476;50.002;11.854;2023-05-07T03:04:42;7.80;99.90
46730;DHT22;32476;50.002;11.854;2023-05-07T03:07:08;7.70;99.90
46730;DHT22;32476;50.002;11.854;2023-05-07T03:09:35;7.70;99.90
46730;DHT22;32476;50.002;11.854;2023-05-07T03:12:01;7.70;99.90
46730;DHT22;32476;50.002;11.854;2023-05-07T03:14:27;7.70;99.90
46730;DHT22;32476;50.002;11.854;2023-05-07T03:16:54;7.60;99.90
46730;DHT22;32476;50.002;11.854;2023-05-07T03:19:20;7.60;99.90
46730;DHT22;32476;50.002;11.854;2023-05-07T03:21:46;7.60;99.90
46730;DHT22;32476;50.002;11.854;2023-05-07T03:24:13;7.50;99.90
46730;DHT22;32476;50.002;11.854;2023-05-07T03:26:39;7.60;99.90
46730;DHT22;32476;50.002;11.854;2023-05-07T03:29:05;7.50;99.90
46730;DHT22;32476;50.002;11.854;2023-05-07T03:31:32;7.50;99.90
46730;DHT22;32476;50.002;11.854;2023-05-07T03:33:58;7.60;99.90
46730;DHT22;32476;50.002;11.854;2023-05-07T03:36:24;7.60;99.90
46730;DHT22;32476;50.002;11.854;2023-05-07T03:38:53;7.60;99.90
46730;DHT22;32476;50.002;11.854;2023-05-07T03:41:20;7.70;99.90
46730;DHT22;32476;50.002;11.854;2023-05-07T03:43:46;7.80;99.90
46730;DHT22;32476;50.002;11.854;2023-05-07T03:46:13;7.60;99.90
46730;DHT22;32476;50.002;11.854;2023-05-07T03:48:39;7.70;99.90
46730;DHT22;32476;50.002;11.854;2023-05-07T03:51:05;7.60;99.90
46730;DHT22;32476;50.002;11.854;2023-05-07T03:53:32;7.50;99.90
46730;DHT22;32476;50.002;11.854;2023-05-07T03:55:58;7.60;99.90
46730;DHT22;32476;50.002;11.854;2023-05-07T03:58:24;7.50;99.90
46730;DHT22;32476;50.002;11.854;2023-05-07T04:00:52;7.50;99.90
46730;DHT22;32476;50.002;11.854;2023-05-07T04:03:18;7.50;99.90
46730;DHT22;32476;50.002;11.854;2023-05-07T04:05:43;7.50;99.90
46730;DHT22;32476;50.002;11.854;2023-05-07T04:08:11;7.40;99.90
46730;DHT22;32476;50.002;11.854;2023-05-07T04:10:36;7.40;99.90
46730;DHT22;32476;50.002;11.854;2023-05-07T04:13:02;7.50;99.90
46730;DHT22;32476;50.002;11.854;2023-05-07T04:15:29;7.50;99.90
46730;DHT22;32476;50.002;11.854;2023-05-07T04:17:55;7.60;99.90
46730;DHT22;32476;50.002;11.854;2023-05-07T04:20:21;7.70;99.90
46730;DHT22;32476;50.002;11.854;2023-05-07T04:22:48;7.90;99.90
46730;DHT22;32476;50.002;11.854;2023-05-07T04:25:16;7.90;99.90
46730;DHT22;32476;50.002;11.854;2023-05-07T04:27:42;7.90;99.90
46730;DHT22;32476;50.002;11.854;2023-05-07T04:30:09;7.90;99.90
46730;DHT22;32476;50.002;11.854;2023-05-07T04:32:35;7.80;99.90
46730;DHT22;32476;50.002;11.854;2023-05-07T04:35:03;7.90;99.90
46730;DHT22;32476;50.002;11.854;2023-05-07T04:37:32;7.90;99.90
46730;DHT22;32476;50.002;11.854;2023-05-07T04:39:58;7.90;99.90
46730;DHT22;32476;50.002;11.854;2023-05-07T04:42:23;8.00;99.90
46730;DHT22;32476;50.002;11.854;2023-05-07T04:44:53;8.10;99.90
46730;DHT22;32476;50.002;11.854;2023-05-07T04:47:19;8.10;99.90
46730;DHT22;32476;50.002;11.854;2023-05-07T04:49:45;8.20;99.90
46730;DHT22;32476;50.002;11.854;2023-05-07T04:52:12;8.20;99.90
46730;DHT22;32476;50.002;11.854;2023-05-07T04:54:38;8.30;99.90
46730;DHT22;32476;50.002;11.854;2023-05-07T04:57:04;8.40;99.90
46730;DHT22;32476;50.002;11.854;2023-05-07T04:59:32;8.40;99.90
46730;DHT22;32476;50.002;11.854;2023-05-07T05:01:58;8.40;99.90
46730;DHT22;32476;50.002;11.854;2023-05-07T05:04:24;8.40;99.90
46730;DHT22;32476;50.002;11.854;2023-05-07T05:06:51;8.40;99.90
46730;DHT22;32476;50.002;11.854;2023-05-07T05:09:17;8.30;99.90
46730;DHT22;32476;50.002;11.854;2023-05-07T05:11:43;8.40;99.90
46730;DHT22;32476;50.002;11.854;2023-05-07T05:14:10;8.50;99.90
46730;DHT22;32476;50.002;11.854;2023-05-07T05:16:36;8.60;99.90
46730;DHT22;32476;50.002;11.854;2023-05-07T05:19:02;8.70;99.90
46730;DHT22;32476;50.002;11.854;2023-05-07T05:21:29;8.70;99.90
46730;DHT22;32476;50.002;11.854;2023-05-07T05:23:55;8.70;99.90
46730;DHT22;32476;50.002;11.854;2023-05-07T05:26:21;8.70;99.90
46730;DHT22;32476;50.002;11.854;2023-05-07T05:28:48;8.70;99.90
46730;DHT22;32476;50.002;11.854;2023-05-07T05:31:14;8.80;99.90
46730;DHT22;32476;50.002;11.854;2023-05-07T05:33:40;8.80;99.90
46730;DHT22;32476;50.002;11.854;2023-05-07T05:36:09;8.90;99.90
46730;DHT22;32476;50.002;11.854;2023-05-07T05:38:36;9.00;99.90
46730;DHT22;32476;50.002;11.854;2023-05-07T05:41:01;9.10;99.90
46730;DHT22;32476;50.002;11.854;2023-05-07T05:43:29;9.10;99.90
46730;DHT22;32476;50.002;11.854;2023-05-07T05:45:55;9.20;99.90
46730;DHT22;32476;50.002;11.854;2023-05-07T05:48:21;9.20;99.90
46730;DHT22;32476;50.002;11.854;2023-05-07T05:50:49;9.10;99.90
46730;DHT22;32476;50.002;11.854;2023-05-07T05:53:15;9.10;99.90
46730;DHT22;32476;50.002;11.854;2023-05-07T05:55:42;9.10;99.90
46730;DHT22;32476;50.002;11.854;2023-05-07T05:58:12;9.10;99.90
46730;DHT22;32476;50.002;11.854;2023-05-07T06:00:38;9.20;99.90
46730;DHT22;32476;50.002;11.854;2023-05-07T06:03:04;9.20;99.90
46730;DHT22;32476;50.002;11.854;2023-05-07T06:05:32;9.30;99.90
46730;DHT22;32476;50.002;11.854;2023-05-07T06:07:57;9.20;99.90
46730;DHT22;32476;50.002;11.854;2023-05-07T06:10:23;9.40;99.90
46730;DHT22;32476;50.002;11.854;2023-05-07T06:12:51;9.50;99.90
46730;DHT22;32476;50.002;11.854;2023-05-07T06:15:17;9.60;99.90
46730;DHT22;32476;50.002;11.854;2023-05-07T06:17:43;9.60;99.90
46730;DHT22;32476;50.002;11.854;2023-05-07T06:20:10;9.70;99.90
46730;DHT22;32476;50.002;11.854;2023-05-07T06:22:36;9.80;99.90
46730;DHT22;32476;50.002;11.854;2023-05-07T06:25:02;9.90;99.90
46730;DHT22;32476;50.002;11.854;2023-05-07T06:27:29;10.00;99.90
46730;DHT22;32476;50.002;11.854;2023-05-07T06:29:55;10.00;99.90
46730;DHT22;32476;50.002;11.854;2023-05-07T06:32:21;10.20;99.90
46730;DHT22;32476;50.002;11.854;2023-05-07T06:34:48;10.30;99.90
46730;DHT22;32476;50.002;11.854;2023-05-07T06:37:14;10.50;99.90
46730;DHT22;32476;50.002;11.854;2023-05-07T06:39:40;10.60;99.90
46730;DHT22;32476;50.002;11.854;2023-05-07T06:42:07;10.80;99.90
46730;DHT22;32476;50.002;11.854;2023-05-07T06:44:33;11.00;99.90
46730;DHT22;32476;50.002;11.854;2023-05-07T06:46:58;11.20;99.90
46730;DHT22;32476;50.002;11.854;2023-05-07T06:49:26;11.30;99.90
46730;DHT22;32476;50.002;11.854;2023-05-07T06:51:52;11.60;99.90
46730;DHT22;32476;50.002;11.854;2023-05-07T06:54:18;11.70;99.90
46730;DHT22;32476;50.002;11.854;2023-05-07T06:56:45;12.00;99.90
46730;DHT22;32476;50.002;11.854;2023-05-07T06:59:11;12.00;99.90
46730;DHT22;32476;50.002;11.854;2023-05-07T07:01:36;12.10;99.90
46730;DHT22;32476;50.002;11.854;2023-05-07T07:04:04;12.40;99.90
46730;DHT22;32476;50.002;11.854;2023-05-07T07:06:30;12.60;99.90
46730;DHT22;32476;50.002;11.854;2023-05-07T07:08:58;12.70;99.90
46730;DHT22;32476;50.002;11.854;2023-05-07T07:11:25;12.90;99.90
46730;DHT22;32476;50.002;11.854;2023-05-07T07:13:51;13.10;99.90
46730;DHT22;32476;50.002;11.854;2023-05-07T07:16:17;13.30;99.90
46730;DHT22;32476;50.002;11.854;2023-05-07T07:18:44;13.60;99.90
46730;DHT22;32476;50.002;11.854;2023-05-07T07:21:10;13.70;99.90
46730;DHT22;32476;50.002;11.854;2023-05-07T07:23:36;13.80;99.90
46730;DHT22;32476;50.002;11.854;2023-05-07T07:26:03;14.00;99.90
46730;DHT22;32476;50.002;11.854;2023-05-07T07:28:29;14.20;99.90
46730;DHT22;32476;50.002;11.854;2023-05-07T07:30:55;14.10;99.90
46730;DHT22;32476;50.002;11.854;2023-05-07T07:33:22;14.30;99.90
46730;DHT22;32476;50.002;11.854;2023-05-07T07:35:48;14.40;99.90
46730;DHT22;32476;50.002;11.854;2023-05-07T07:38:13;14.70;99.90
46730;DHT22;32476;50.002;11.854;2023-05-07T07:40:41;14.80;99.90
46730;DHT22;32476;50.002;11.854;2023-05-07T07:43:06;15.20;99.90
46730;DHT22;32476;50.002;11.854;2023-05-07T07:45:32;14.50;99.90
46730;DHT22;32476;50.002;11.854;2023-05-07T07:47:59;15.00;99.90
46730;DHT22;32476;50.002;11.854;2023-05-07T07:50:25;15.20;99.90
46730;DHT22;32476;50.002;11.854;2023-05-07T07:52:51;15.10;99.90
46730;DHT22;32476;50.002;11.854;2023-05-07T07:55:20;15.20;99.90
46730;DHT22;32476;50.002;11.854;2023-05-07T07:57:49;15.00;99.90
46730;DHT22;32476;50.002;11.854;2023-05-07T08:00:15;15.10;99.90
46730;DHT22;32476;50.002;11.854;2023-05-07T08:02:43;14.80;99.90
46730;DHT22;32476;50.002;11.854;2023-05-07T08:05:10;15.10;99.90
46730;DHT22;32476;50.002;11.854;2023-05-07T08:07:36;15.30;99.90
46730;DHT22;32476;50.002;11.854;2023-05-07T08:10:03;15.70;99.90
46730;DHT22;32476;50.002;11.854;2023-05-07T08:12:29;15.60;99.90
46730;DHT22;32476;50.002;11.854;2023-05-07T08:14:55;15.70;99.90
46730;DHT22;32476;50.002;11.854;2023-05-07T08:17:22;15.80;99.90
46730;DHT22;32476;50.002;11.854;2023-05-07T08:19:48;15.50;99.90
46730;DHT22;32476;50.002;11.854;2023-05-07T08:22:14;16.00;99.90
46730;DHT22;32476;50.002;11.854;2023-05-07T08:24:41;16.30;99.90
46730;DHT22;32476;50.002;11.854;2023-05-07T08:27:07;16.30;99.90
46730;DHT22;32476;50.002;11.854;2023-05-07T08:29:33;15.40;99.90
46730;DHT22;32476;50.002;11.854;2023-05-07T08:32:00;15.30;99.90
46730;DHT22;32476;50.002;11.854;2023-05-07T08:34:26;15.40;99.90
46730;DHT22;32476;50.002;11.854;2023-05-07T08:36:52;15.90;99.90
46730;DHT22;32476;50.002;11.854;2023-05-07T08:39:20;16.40;99.90
46730;DHT22;32476;50.002;11.854;2023-05-07T08:41:45;16.30;99.90
46730;DHT22;32476;50.002;11.854;2023-05-07T08:44:13;16.40;99.90
46730;DHT22;32476;50.002;11.854;2023-05-07T08:46:41;16.20;99.90
46730;DHT22;32476;50.002;11.854;2023-05-07T08:49:09;16.50;99.90
46730;DHT22;32476;50.002;11.854;2023-05-07T08:51:35;16.00;99.90
46730;DHT22;32476;50.002;11.854;2023-05-07T08:54:03;16.00;99.90
46730;DHT22;32476;50.002;11.854;2023-05-07T08:56:30;15.90;99.90
46730;DHT22;32476;50.002;11.854;2023-05-07T08:58:56;15.90;99.90
46730;DHT22;32476;50.002;11.854;2023-05-07T09:01:26;16.20;99.90
46730;DHT22;32476;50.002;11.854;2023-05-07T09:03:52;16.30;99.90
46730;DHT22;32476;50.002;11.854;2023-05-07T09:06:19;16.10;99.90
46730;DHT22;32476;50.002;11.854;2023-05-07T09:08:51;16.30;99.90
46730;DHT22;32476;50.002;11.854;2023-05-07T09:11:20;16.20;99.90
46730;DHT22;32476;50.002;11.854;2023-05-07T09:13:49;16.30;99.90
46730;DHT22;32476;50.002;11.854;2023-05-07T09:16:20;16.80;99.90
46730;DHT22;32476;50.002;11.854;2023-05-07T09:18:51;16.30;99.90
46730;DHT22;32476;50.002;11.854;2023-05-07T09:21:18;15.90;99.90
46730;DHT22;32476;50.002;11.854;2023-05-07T09:23:44;16.30;99.90
46730;DHT22;32476;50.002;11.854;2023-05-07T09:26:11;16.20;99.90
46730;DHT22;32476;50.002;11.854;2023-05-07T09:28:39;16.60;99.90
46730;DHT22;32476;50.002;11.854;2023-05-07T09:31:06;16.50;99.90
46730;DHT22;32476;50.002;11.854;2023-05-07T09:33:33;16.40;99.90
46730;DHT22;32476;50.002;11.854;2023-05-07T09:36:02;16.30;99.90
46730;DHT22;32476;50.002;11.854;2023-05-07T09:38:28;16.00;99.90
46730;DHT22;32476;50.002;11.854;2023-05-07T09:41:07;16.10;99.90
46730;DHT22;32476;50.002;11.854;2023-05-07T09:43:35;16.10;99.90
46730;DHT22;32476;50.002;11.854;2023-05-07T09:46:06;16.30;99.90
46730;DHT22;32476;50.002;11.854;2023-05-07T09:48:32;16.50;99.90
46730;DHT22;32476;50.002;11.854;2023-05-07T09:51:02;16.80;99.90
46730;DHT22;32476;50.002;11.854;2023-05-07T09:53:33;17.00;99.90
46730;DHT22;32476;50.002;11.854;2023-05-07T09:55:59;16.00;99.90
46730;DHT22;32476;50.002;11.854;2023-05-07T09:58:27;16.30;99.90
46730;DHT22;32476;50.002;11.854;2023-05-07T10:00:54;16.00;99.90
46730;DHT22;32476;50.002;11.854;2023-05-07T10:03:22;16.50;99.90
46730;DHT22;32476;50.002;11.854;2023-05-07T10:05:51;16.60;99.90
46730;DHT22;32476;50.002;11.854;2023-05-07T10:08:18;16.90;99.90
46730;DHT22;32476;50.002;11.854;2023-05-07T10:10:45;16.70;99.90
46730;DHT22;32476;50.002;11.854;2023-05-07T10:13:13;16.80;99.90
46730;DHT22;32476;50.002;11.854;2023-05-07T10:15:39;16.70;99.90
46730;DHT22;32476;50.002;11.854;2023-05-07T10:18:06;16.50;99.90
46730;DHT22;32476;50.002;11.854;2023-05-07T10:20:34;16.50;99.90
46730;DHT22;32476;50.002;11.854;2023-05-07T10:23:04;17.00;99.90
46730;DHT22;32476;50.002;11.854;2023-05-07T10:25:32;16.40;99.90
46730;DHT22;32476;50.002;11.854;2023-05-07T10:28:04;16.50;99.90
46730;DHT22;32476;50.002;11.854;2023-05-07T10:33:05;17.90;99.90
46730;DHT22;32476;50.002;11.854;2023-05-07T10:35:37;18.20;98.10
46730;DHT22;32476;50.002;11.854;2023-05-07T10:38:05;18.40;98.70
46730;DHT22;32476;50.002;11.854;2023-05-07T10:40:32;18.40;99.90
46730;DHT22;32476;50.002;11.854;2023-05-07T10:43:03;18.30;97.00
46730;DHT22;32476;50.002;11.854;2023-05-07T10:45:32;18.70;98.90
46730;DHT22;32476;50.002;11.854;2023-05-07T10:48:14;18.60;94.90
46730;DHT22;32476;50.002;11.854;2023-05-07T10:50:43;18.10;97.40
46730;DHT22;32476;50.002;11.854;2023-05-07T10:55:51;17.60;96.70
46730;DHT22;32476;50.002;11.854;2023-05-07T11:00:49;17.70;97.90
46730;DHT22;32476;50.002;11.854;2023-05-07T11:03:15;18.50;96.30
46730;DHT22;32476;50.002;11.854;2023-05-07T11:05:41;19.20;96.70
46730;DHT22;32476;50.002;11.854;2023-05-07T11:08:09;19.60;95.40
46730;DHT22;32476;50.002;11.854;2023-05-07T11:10:53;20.10;95.30
46730;DHT22;32476;50.002;11.854;2023-05-07T11:13:42;20.30;93.40
46730;DHT22;32476;50.002;11.854;2023-05-07T11:18:49;18.50;93.60
46730;DHT22;32476;50.002;11.854;2023-05-07T11:21:41;18.80;95.40
46730;DHT22;32476;50.002;11.854;2023-05-07T11:24:09;19.10;95.70
46730;DHT22;32476;50.002;11.854;2023-05-07T11:26:44;19.00;94.10
46730;DHT22;32476;50.002;11.854;2023-05-07T11:29:13;18.30;93.90
46730;DHT22;32476;50.002;11.854;2023-05-07T11:31:40;18.30;96.40
46730;DHT22;32476;50.002;11.854;2023-05-07T11:34:06;18.20;94.80
46730;DHT22;32476;50.002;11.854;2023-05-07T11:36:34;18.70;96.10
46730;DHT22;32476;50.002;11.854;2023-05-07T11:39:01;19.10;93.70
46730;DHT22;32476;50.002;11.854;2023-05-07T11:41:36;19.10;93.70
46730;DHT22;32476;50.002;11.854;2023-05-07T11:44:06;19.20;94.60
46730;DHT22;32476;50.002;11.854;2023-05-07T11:46:33;19.70;93.80
46730;DHT22;32476;50.002;11.854;2023-05-07T11:49:00;19.90;95.30
46730;DHT22;32476;50.002;11.854;2023-05-07T11:51:27;20.30;93.50
46730;DHT22;32476;50.002;11.854;2023-05-07T11:53:53;20.90;92.90
46730;DHT22;32476;50.002;11.854;2023-05-07T11:56:19;21.00;91.50
46730;DHT22;32476;50.002;11.854;2023-05-07T11:58:47;21.50;91.80
46730;DHT22;32476;50.002;11.854;2023-05-07T12:01:14;21.30;90.60
46730;DHT22;32476;50.002;11.854;2023-05-07T12:03:43;21.90;90.00
46730;DHT22;32476;50.002;11.854;2023-05-07T12:06:11;21.30;88.00
46730;DHT22;32476;50.002;11.854;2023-05-07T12:08:39;20.80;91.20
46730;DHT22;32476;50.002;11.854;2023-05-07T12:11:11;19.80;83.50
46730;DHT22;32476;50.002;11.854;2023-05-07T12:13:40;19.60;90.30
46730;DHT22;32476;50.002;11.854;2023-05-07T12:16:07;19.30;90.90
46730;DHT22;32476;50.002;11.854;2023-05-07T12:18:35;19.30;91.40
46730;DHT22;32476;50.002;11.854;2023-05-07T12:21:03;19.20;91.10
46730;DHT22;32476;50.002;11.854;2023-05-07T12:23:30;19.40;91.40
46730;DHT22;32476;50.002;11.854;2023-05-07T12:25:56;19.00;92.20
46730;DHT22;32476;50.002;11.854;2023-05-07T12:28:23;19.00;92.80
46730;DHT22;32476;50.002;11.854;2023-05-07T12:30:50;19.40;92.50
46730;DHT22;32476;50.002;11.854;2023-05-07T12:33:24;19.50;92.40
46730;DHT22;32476;50.002;11.854;2023-05-07T12:35:54;20.50;92.50
46730;DHT22;32476;50.002;11.854;2023-05-07T12:38:21;21.50;92.90
46730;DHT22;32476;50.002;11.854;2023-05-07T12:40:48;21.10;87.90
46730;DHT22;32476;50.002;11.854;2023-05-07T12:43:25;20.50;90.70
46730;DHT22;32476;50.002;11.854;2023-05-07T12:45:53;20.90;91.40
46730;DHT22;32476;50.002;11.854;2023-05-07T12:48:21;21.40;89.60
46730;DHT22;32476;50.002;11.854;2023-05-07T12:50:52;21.50;90.20
46730;DHT22;32476;50.002;11.854;2023-05-07T12:53:21;22.10;87.10
46730;DHT22;32476;50.002;11.854;2023-05-07T12:55:50;22.20;87.60
46730;DHT22;32476;50.002;11.854;2023-05-07T13:00:42;20.80;84.90
46730;DHT22;32476;50.002;11.854;2023-05-07T13:03:11;21.70;87.20
46730;DHT22;32476;50.002;11.854;2023-05-07T13:05:37;20.80;89.10
46730;DHT22;32476;50.002;11.854;2023-05-07T13:08:03;20.90;85.30
46730;DHT22;32476;50.002;11.854;2023-05-07T13:10:31;21.40;87.20
46730;DHT22;32476;50.002;11.854;2023-05-07T13:12:56;21.00;85.70
46730;DHT22;32476;50.002;11.854;2023-05-07T13:15:22;20.10;88.20
46730;DHT22;32476;50.002;11.854;2023-05-07T13:17:50;19.70;90.50
46730;DHT22;32476;50.002;11.854;2023-05-07T13:20:16;19.20;90.90
46730;DHT22;32476;50.002;11.854;2023-05-07T13:22:41;19.70;92.30
46730;DHT22;32476;50.002;11.854;2023-05-07T13:25:09;19.90;90.10
46730;DHT22;32476;50.002;11.854;2023-05-07T13:27:34;20.10;90.60
46730;DHT22;32476;50.002;11.854;2023-05-07T13:30:03;20.50;91.20
46730;DHT22;32476;50.002;11.854;2023-05-07T13:32:31;20.80;88.80
46730;DHT22;32476;50.002;11.854;2023-05-07T13:34:57;20.30;88.10
46730;DHT22;32476;50.002;11.854;2023-05-07T13:37:23;19.80;91.40
46730;DHT22;32476;50.002;11.854;2023-05-07T13:39:50;20.30;91.60
46730;DHT22;32476;50.002;11.854;2023-05-07T13:42:16;21.20;88.00
46730;DHT22;32476;50.002;11.854;2023-05-07T13:44:42;20.90;89.80
46730;DHT22;32476;50.002;11.854;2023-05-07T13:47:10;20.80;86.00
46730;DHT22;32476;50.002;11.854;2023-05-07T13:49:36;20.50;87.50
46730;DHT22;32476;50.002;11.854;2023-05-07T13:52:03;20.30;87.60
46730;DHT22;32476;50.002;11.854;2023-05-07T13:54:30;20.10;89.20
46730;DHT22;32476;50.002;11.854;2023-05-07T13:56:56;19.80;90.20
46730;DHT22;32476;50.002;11.854;2023-05-07T13:59:21;19.90;89.90
46730;DHT22;32476;50.002;11.854;2023-05-07T14:01:49;19.70;90.20
46730;DHT22;32476;50.002;11.854;2023-05-07T14:04:15;19.90;90.90
46730;DHT22;32476;50.002;11.854;2023-05-07T14:06:40;19.30;88.90
46730;DHT22;32476;50.002;11.854;2023-05-07T14:09:08;19.40;88.80
46730;DHT22;32476;50.002;11.854;2023-05-07T14:11:34;19.40;90.00
46730;DHT22;32476;50.002;11.854;2023-05-07T14:14:00;19.30;91.30
46730;DHT22;32476;50.002;11.854;2023-05-07T14:16:27;19.30;89.70
46730;DHT22;32476;50.002;11.854;2023-05-07T14:18:53;20.00;90.20
46730;DHT22;32476;50.002;11.854;2023-05-07T14:21:19;20.20;86.90
46730;DHT22;32476;50.002;11.854;2023-05-07T14:23:46;19.80;86.80
46730;DHT22;32476;50.002;11.854;2023-05-07T14:26:12;19.00;87.40
46730;DHT22;32476;50.002;11.854;2023-05-07T14:28:38;19.70;90.90
46730;DHT22;32476;50.002;11.854;2023-05-07T14:31:06;20.40;88.70
46730;DHT22;32476;50.002;11.854;2023-05-07T14:33:32;20.10;88.80
46730;DHT22;32476;50.002;11.854;2023-05-07T14:35:58;20.30;85.50
46730;DHT22;32476;50.002;11.854;2023-05-07T14:38:25;20.50;86.60
46730;DHT22;32476;50.002;11.854;2023-05-07T14:40:51;21.10;86.30
46730;DHT22;32476;50.002;11.854;2023-05-07T14:43:17;20.90;84.40
46730;DHT22;32476;50.002;11.854;2023-05-07T14:45:45;21.20;88.70
46730;DHT22;32476;50.002;11.854;2023-05-07T14:48:11;21.40;81.80
46730;DHT22;32476;50.002;11.854;2023-05-07T14:50:43;20.90;85.90
46730;DHT22;32476;50.002;11.854;2023-05-07T14:53:10;20.80;82.70
46730;DHT22;32476;50.002;11.854;2023-05-07T14:55:36;20.70;82.50
46730;DHT22;32476;50.002;11.854;2023-05-07T14:58:03;21.30;81.50
46730;DHT22;32476;50.002;11.854;2023-05-07T15:00:31;21.50;86.20
46730;DHT22;32476;50.002;11.854;2023-05-07T15:03:08;21.30;82.90
46730;DHT22;32476;50.002;11.854;2023-05-07T15:05:36;21.70;85.30
46730;DHT22;32476;50.002;11.854;2023-05-07T15:08:02;21.70;81.70
46730;DHT22;32476;50.002;11.854;2023-05-07T15:10:28;21.60;81.00
46730;DHT22;32476;50.002;11.854;2023-05-07T15:12:56;21.70;79.20
46730;DHT22;32476;50.002;11.854;2023-05-07T15:15:21;21.60;81.40
46730;DHT22;32476;50.002;11.854;2023-05-07T15:17:47;21.00;80.30
46730;DHT22;32476;50.002;11.854;2023-05-07T15:20:14;21.30;81.60
46730;DHT22;32476;50.002;11.854;2023-05-07T15:22:40;21.00;80.00
46730;DHT22;32476;50.002;11.854;2023-05-07T15:25:07;20.70;81.50
46730;DHT22;32476;50.002;11.854;2023-05-07T15:27:34;21.20;81.10
46730;DHT22;32476;50.002;11.854;2023-05-07T15:30:01;21.50;80.70
46730;DHT22;32476;50.002;11.854;2023-05-07T15:32:26;20.70;81.90
46730;DHT22;32476;50.002;11.854;2023-05-07T15:34:54;20.20;83.50